createdAt,value
2023-04-28T00:02:03.265Z,10.80
2023-04-28T00:04:30.363Z,11.30
2023-04-28T00:06:57.990Z,10.60
2023-04-28T00:09:25.095Z,10.33
2023-04-28T00:11:52.093Z,10.57
2023-04-28T00:14:19.204Z,11.30
2023-04-28T00:16:46.643Z,10.80
2023-04-28T00:19:13.912Z,10.93
2023-04-28T00:21:40.933Z,11.43
2023-04-28T00:24:08.240Z,10.50
2023-04-28T00:26:35.512Z,10.43
2023-04-28T00:29:02.550Z,11.07
2023-04-28T00:31:29.777Z,10.90
2023-04-28T00:33:57.375Z,9.93
2023-04-28T00:36:24.403Z,9.30
2023-04-28T00:38:51.414Z,9.60
2023-04-28T00:41:18.419Z,10.27
2023-04-28T00:43:50.016Z,9.77
2023-04-28T00:46:25.826Z,10.13
2023-04-28T00:48:53.266Z,9.97
2023-04-28T00:51:21.144Z,10.47
2023-04-28T00:53:48.648Z,9.50
2023-04-28T00:56:15.812Z,10.50
2023-04-28T00:58:43.696Z,10.53
2023-04-28T01:01:11.313Z,10.50
2023-04-28T01:03:40.620Z,9.40
2023-04-28T01:06:10.519Z,9.03
2023-04-28T01:08:39.229Z,9.67
2023-04-28T01:11:14.126Z,10.77
2023-04-28T01:14:01.543Z,9.60
2023-04-28T01:16:34.077Z,11.93
2023-04-28T01:19:01.683Z,11.27
2023-04-28T01:21:34.965Z,11.10
2023-04-28T01:24:15.985Z,10.40
2023-04-28T01:26:44.525Z,10.80
2023-04-28T01:29:11.678Z,9.93
2023-04-28T01:31:38.828Z,10.50
2023-04-28T01:34:06.018Z,10.60
2023-04-28T01:36:35.309Z,10.13
2023-04-28T01:39:04.902Z,8.97
2023-04-28T01:41:34.565Z,8.40
2023-04-28T01:44:01.881Z,8.50
2023-04-28T01:46:28.976Z,8.87
2023-04-28T01:48:55.906Z,8.30
2023-04-28T01:51:22.861Z,8.50
2023-04-28T01:53:50.037Z,8.00
2023-04-28T01:56:17.022Z,8.20
2023-04-28T01:58:44.204Z,7.67
2023-04-28T02:01:12.595Z,7.90
2023-04-28T02:03:39.797Z,7.63
2023-04-28T02:06:07.199Z,7.70
2023-04-28T02:08:36.181Z,7.17
2023-04-28T02:11:04.133Z,7.60
2023-04-28T02:13:31.263Z,7.13
2023-04-28T02:16:02.135Z,7.33
2023-04-28T02:18:29.391Z,7.00
2023-04-28T02:21:12.413Z,6.93
2023-04-28T02:23:40.676Z,7.17
2023-04-28T02:26:07.833Z,6.93
2023-04-28T02:28:34.788Z,7.47
2023-04-28T02:31:10.204Z,7.00
2023-04-28T02:33:38.415Z,7.13
2023-04-28T02:36:06.708Z,7.10
2023-04-28T02:38:34.254Z,7.70
2023-04-28T02:41:05.016Z,7.93
2023-04-28T02:43:33.122Z,7.27
2023-04-28T02:46:01.178Z,7.93
2023-04-28T02:48:28.286Z,7.57
2023-04-28T02:50:55.428Z,7.90
2023-04-28T02:53:23.155Z,7.50
2023-04-28T02:55:50.517Z,7.87
2023-04-28T02:58:18.107Z,8.17
2023-04-28T03:00:46.382Z,7.90
2023-04-28T03:03:14.181Z,7.37
2023-04-28T03:05:41.457Z,7.50
2023-04-28T03:08:08.473Z,7.93
2023-04-28T03:10:35.574Z,8.23
2023-04-28T03:13:03.465Z,7.80
2023-04-28T03:15:31.068Z,7.60
2023-04-28T03:17:58.482Z,8.07
2023-04-28T03:20:25.556Z,7.80
2023-04-28T03:22:52.673Z,8.03
2023-04-28T03:25:19.846Z,8.27
2023-04-28T03:27:49.550Z,7.90
2023-04-28T03:30:16.586Z,8.07
2023-04-28T03:32:43.614Z,7.50
2023-04-28T03:35:10.754Z,7.83
2023-04-28T03:37:39.288Z,7.70
2023-04-28T03:40:07.433Z,7.97
2023-04-28T03:42:53.205Z,7.93
2023-04-28T03:45:34.125Z,8.13
2023-04-28T03:48:01.688Z,7.80
2023-04-28T03:50:28.945Z,8.43
2023-04-28T03:52:56.071Z,8.03
2023-04-28T03:55:26.130Z,8.23
2023-04-28T03:57:53.445Z,8.70
2023-04-28T04:00:20.620Z,8.93
2023-04-28T04:02:49.697Z,8.73
2023-04-28T04:05:17.190Z,8.57
2023-04-28T04:07:44.370Z,8.53
2023-04-28T04:10:11.596Z,8.27
2023-04-28T04:12:41.857Z,8.20
2023-04-28T04:15:09.838Z,9.13
2023-04-28T04:17:37.929Z,8.23
2023-04-28T04:20:06.337Z,8.90
2023-04-28T04:22:33.375Z,8.50
2023-04-28T04:25:00.356Z,8.90
2023-04-28T04:27:27.392Z,9.00
2023-04-28T04:29:55.136Z,10.37
2023-04-28T04:32:22.165Z,10.10
2023-04-28T04:34:50.170Z,9.90
2023-04-28T04:37:17.644Z,9.67
2023-04-28T04:39:56.682Z,10.13
2023-04-28T04:42:25.987Z,9.40
2023-04-28T04:45:16.653Z,10.03
2023-04-28T04:47:43.829Z,9.10
2023-04-28T04:50:12.273Z,9.60
2023-04-28T04:52:39.742Z,9.97
2023-04-28T04:55:07.943Z,10.03
2023-04-28T04:57:34.946Z,10.50
2023-04-28T05:00:08.035Z,9.90
2023-04-28T05:02:35.830Z,10.30
2023-04-28T05:05:19.645Z,9.50
2023-04-28T05:07:55.171Z,10.23
2023-04-28T05:10:22.640Z,9.73
2023-04-28T05:12:49.730Z,10.67
2023-04-28T05:15:18.392Z,11.23
2023-04-28T05:18:00.147Z,11.67
2023-04-28T05:20:28.003Z,11.07
2023-04-28T05:22:55.664Z,11.27
2023-04-28T05:25:22.680Z,12.23
2023-04-28T05:27:49.656Z,10.80
2023-04-28T05:30:16.755Z,11.73
2023-04-28T05:32:43.715Z,11.27
2023-04-28T05:35:10.669Z,11.33
2023-04-28T05:37:38.242Z,11.77
2023-04-28T05:40:07.110Z,11.50
2023-04-28T05:42:34.279Z,11.80
2023-04-28T05:45:01.372Z,11.40
2023-04-28T05:47:30.163Z,11.90
2023-04-28T05:49:57.387Z,10.83
2023-04-28T05:52:24.330Z,11.13
2023-04-28T05:54:51.262Z,11.47
2023-04-28T05:57:18.257Z,12.37
2023-04-28T05:59:45.567Z,11.83
2023-04-28T06:02:14.116Z,12.80
2023-04-28T06:04:41.852Z,11.70
2023-04-28T06:07:08.954Z,11.87
2023-04-28T06:09:36.693Z,11.80
2023-04-28T06:12:03.937Z,12.23
2023-04-28T06:14:30.958Z,12.23
2023-04-28T06:16:58.041Z,14.30
2023-04-28T06:19:25.000Z,13.47
2023-04-28T06:21:52.848Z,12.37
2023-04-28T06:24:20.982Z,13.60
2023-04-28T06:26:48.642Z,11.97
2023-04-28T06:29:15.762Z,12.37
2023-04-28T06:31:42.814Z,12.23
2023-04-28T06:34:09.846Z,11.73
2023-04-28T06:36:36.859Z,12.33
2023-04-28T06:39:04.859Z,11.07
2023-04-28T06:41:33.577Z,12.70
2023-04-28T06:44:02.752Z,40.77
2023-04-28T06:46:31.704Z,13.77
2023-04-28T06:48:58.716Z,13.90
2023-04-28T06:51:26.933Z,12.50
2023-04-28T06:53:54.177Z,11.43
2023-04-28T06:56:21.138Z,11.43
2023-04-28T06:58:48.616Z,11.40
2023-04-28T07:01:15.622Z,11.47
2023-04-28T07:03:43.233Z,11.40
2023-04-28T07:06:11.375Z,12.40
2023-04-28T07:08:38.300Z,11.30
2023-04-28T07:11:06.188Z,11.17
2023-04-28T07:13:33.593Z,11.57
2023-04-28T07:16:01.171Z,10.77
2023-04-28T07:18:28.561Z,10.97
2023-04-28T07:20:55.493Z,11.23
2023-04-28T07:23:22.602Z,10.77
2023-04-28T07:25:49.619Z,12.70
2023-04-28T07:28:17.051Z,16.00
2023-04-28T07:30:44.104Z,24.90
2023-04-28T07:33:11.156Z,16.00
2023-04-28T07:35:38.177Z,12.30
2023-04-28T07:38:06.234Z,11.90
2023-04-28T07:40:33.506Z,12.77
2023-04-28T07:43:00.488Z,12.33
2023-04-28T07:45:27.749Z,12.70
2023-04-28T07:47:54.837Z,11.90
2023-04-28T07:50:21.955Z,11.50
2023-04-28T07:52:49.030Z,11.10
2023-04-28T07:55:16.011Z,10.03
2023-04-28T07:57:43.043Z,9.17
2023-04-28T08:00:11.790Z,9.67
2023-04-28T08:02:39.041Z,8.33
2023-04-28T08:05:07.918Z,9.30
2023-04-28T08:07:37.028Z,8.47
2023-04-28T08:10:05.294Z,8.87
2023-04-28T08:12:32.680Z,8.23
2023-04-28T08:14:59.684Z,8.53
2023-04-28T08:17:26.944Z,9.30
2023-04-28T08:19:53.896Z,8.73
2023-04-28T08:22:20.944Z,8.70
2023-04-28T08:24:47.881Z,8.30
2023-04-28T08:27:14.911Z,8.37
2023-04-28T08:29:42.158Z,8.37
2023-04-28T08:32:09.517Z,7.93
2023-04-28T08:34:36.475Z,7.97
2023-04-28T08:37:04.125Z,7.23
2023-04-28T08:39:31.717Z,4.83
2023-04-28T08:41:58.705Z,3.43
2023-04-28T08:44:26.275Z,2.10
2023-04-28T08:46:58.455Z,1.90
2023-04-28T08:49:36.303Z,1.93
2023-04-28T08:52:10.317Z,1.93
2023-04-28T08:54:40.794Z,1.57
2023-04-28T08:57:11.214Z,1.20
2023-04-28T08:59:41.994Z,1.20
2023-04-28T09:02:10.052Z,0.90
2023-04-28T09:04:37.540Z,0.90
2023-04-28T09:07:10.945Z,1.03
2023-04-28T09:09:39.212Z,0.80
2023-04-28T09:12:07.193Z,1.00
2023-04-28T09:14:36.720Z,1.20
2023-04-28T09:17:13.792Z,1.20
2023-04-28T09:19:43.147Z,1.30
2023-04-28T09:22:18.123Z,1.50
2023-04-28T09:24:53.939Z,1.67
2023-04-28T09:27:28.950Z,2.23
2023-04-28T09:29:56.375Z,1.73
2023-04-28T09:32:27.963Z,2.13
2023-04-28T09:34:59.481Z,2.37
2023-04-28T09:37:30.683Z,2.50
2023-04-28T09:40:05.635Z,2.77
2023-04-28T09:42:36.232Z,2.83
2023-04-28T09:45:06.934Z,3.23
2023-04-28T09:47:37.865Z,5.03
2023-04-28T09:50:11.003Z,2.83
2023-04-28T09:52:38.283Z,2.60
2023-04-28T09:55:10.983Z,2.47
2023-04-28T09:57:39.561Z,2.40
2023-04-28T10:00:09.243Z,3.03
2023-04-28T10:05:10.087Z,2.23
2023-04-28T10:07:38.979Z,2.53
2023-04-28T10:10:08.114Z,2.63
2023-04-28T10:12:38.037Z,2.60
2023-04-28T10:15:06.298Z,3.00
2023-04-28T10:17:35.503Z,3.10
2023-04-28T10:20:03.385Z,3.60
2023-04-28T10:22:43.081Z,3.45
2023-04-28T10:25:12.767Z,3.22
2023-04-28T10:27:44.698Z,2.95
2023-04-28T10:30:27.615Z,2.72
2023-04-28T10:33:26.018Z,2.88
2023-04-28T10:35:53.305Z,2.65
2023-04-28T10:38:23.912Z,2.45
2023-04-28T10:40:53.908Z,2.85
2023-04-28T10:43:30.820Z,2.40
2023-04-28T10:46:01.587Z,2.80
2023-04-28T10:48:53.464Z,3.10
2023-04-28T10:51:20.536Z,3.03
2023-04-28T10:53:53.477Z,2.60
2023-04-28T10:56:25.862Z,2.83
2023-04-28T10:59:00.191Z,2.92
2023-04-28T11:01:29.691Z,3.05
2023-04-28T11:04:15.805Z,2.60
2023-04-28T11:07:07.367Z,3.05
2023-04-28T11:09:34.278Z,2.60
2023-04-28T11:12:01.257Z,2.78
2023-04-28T11:14:36.507Z,2.65
2023-04-28T11:17:06.955Z,2.80
2023-04-28T11:19:40.209Z,2.60
2023-04-28T11:22:20.684Z,2.50
2023-04-28T11:25:02.715Z,3.10
2023-04-28T11:27:34.417Z,3.00
2023-04-28T11:30:01.732Z,2.72
2023-04-28T11:32:35.174Z,2.63
2023-04-28T11:35:04.529Z,2.88
2023-04-28T11:37:31.625Z,2.55
2023-04-28T11:39:58.674Z,2.83
2023-04-28T11:42:27.698Z,2.60
2023-04-28T11:44:55.340Z,2.67
2023-04-28T11:47:34.164Z,2.75
2023-04-28T11:50:02.162Z,2.65
2023-04-28T11:52:29.418Z,2.38
2023-04-28T11:55:00.279Z,2.70
2023-04-28T11:57:28.039Z,2.50
2023-04-28T12:00:14.272Z,2.63
2023-04-28T12:02:41.515Z,2.45
2023-04-28T12:05:10.700Z,2.30
2023-04-28T12:07:45.401Z,2.65
2023-04-28T12:10:19.698Z,2.97
2023-04-28T12:12:51.856Z,2.88
2023-04-28T12:15:22.508Z,2.90
2023-04-28T12:17:50.585Z,3.80
2023-04-28T12:20:39.329Z,3.10
2023-04-28T12:23:07.735Z,2.00
2023-04-28T12:25:45.213Z,2.05
2023-04-28T12:28:12.332Z,2.33
2023-04-28T12:30:41.636Z,2.35
2023-04-28T12:33:29.661Z,2.53
2023-04-28T12:35:58.134Z,2.50
2023-04-28T12:38:27.629Z,2.42
2023-04-28T12:40:54.962Z,3.00
2023-04-28T12:43:23.905Z,4.60
2023-04-28T12:45:53.364Z,4.40
2023-04-28T12:48:21.377Z,4.57
2023-04-28T12:50:48.328Z,3.70
2023-04-28T12:53:15.358Z,3.22
2023-04-28T12:55:42.494Z,3.00
2023-04-28T12:58:09.772Z,2.72
2023-04-28T13:00:36.741Z,2.70
2023-04-28T13:03:03.830Z,2.30
2023-04-28T13:05:32.073Z,2.05
2023-04-28T13:07:59.584Z,2.47
2023-04-28T13:10:26.683Z,2.85
2023-04-28T13:12:53.617Z,2.80
2023-04-28T13:15:20.912Z,3.20
2023-04-28T13:17:49.125Z,2.95
2023-04-28T13:20:16.390Z,3.05
2023-04-28T13:22:43.777Z,2.65
2023-04-28T13:25:11.474Z,2.33
2023-04-28T13:27:39.569Z,2.10
2023-04-28T13:30:08.895Z,2.17
2023-04-28T13:32:36.066Z,2.83
2023-04-28T13:35:04.033Z,5.45
2023-04-28T13:37:32.094Z,2.63
2023-04-28T13:39:59.628Z,2.42
2023-04-28T13:42:26.911Z,2.22
2023-04-28T13:44:53.907Z,1.98
2023-04-28T13:47:20.936Z,2.17
2023-04-28T13:49:48.577Z,1.98
2023-04-28T13:52:15.759Z,2.03
2023-04-28T13:54:44.646Z,1.90
2023-04-28T13:57:13.519Z,1.80
2023-04-28T13:59:41.317Z,1.77
2023-04-28T14:02:09.554Z,2.45
2023-04-28T14:04:37.260Z,2.60
2023-04-28T14:07:04.359Z,2.55
2023-04-28T14:09:32.525Z,2.58
2023-04-28T14:11:59.530Z,2.42
2023-04-28T14:14:26.676Z,2.40
2023-04-28T14:16:53.732Z,2.33
2023-04-28T14:19:21.028Z,2.10
2023-04-28T14:21:48.571Z,1.75
2023-04-28T14:24:15.547Z,1.67
2023-04-28T14:26:43.860Z,1.95
2023-04-28T14:29:10.836Z,1.80
2023-04-28T14:31:38.662Z,1.70
2023-04-28T14:34:06.226Z,1.75
2023-04-28T14:36:33.610Z,1.83
2023-04-28T14:39:01.055Z,1.77
2023-04-28T14:41:28.306Z,1.55
2023-04-28T14:43:55.556Z,1.67
2023-04-28T14:46:23.353Z,1.50
2023-04-28T14:48:51.153Z,1.10
2023-04-28T14:51:18.693Z,1.20
2023-04-28T14:53:45.606Z,1.30
2023-04-28T14:58:44.299Z,1.02
2023-04-28T15:01:11.721Z,1.05
2023-04-28T15:03:39.032Z,1.15
2023-04-28T15:06:06.351Z,1.10
2023-04-28T15:08:33.451Z,1.20
2023-04-28T15:11:00.411Z,1.40
2023-04-28T15:13:28.562Z,1.73
2023-04-28T15:15:56.068Z,1.83
2023-04-28T15:18:23.117Z,1.90
2023-04-28T15:20:51.325Z,2.47
2023-04-28T15:23:19.745Z,2.40
2023-04-28T15:25:47.163Z,2.80
2023-04-28T15:28:14.120Z,2.60
2023-04-28T15:30:41.066Z,2.33
2023-04-28T15:33:08.036Z,2.30
2023-04-28T15:35:35.324Z,2.50
2023-04-28T15:38:02.275Z,2.40
2023-04-28T15:40:29.304Z,2.60
2023-04-28T15:42:56.352Z,2.35
2023-04-28T15:45:23.333Z,2.30
2023-04-28T15:47:51.144Z,1.80
2023-04-28T15:50:20.192Z,1.70
2023-04-28T15:52:49.665Z,2.00
2023-04-28T15:55:19.397Z,1.60
2023-04-28T15:57:48.028Z,1.70
2023-04-28T16:00:16.390Z,1.40
2023-04-28T16:02:45.334Z,1.50
2023-04-28T16:05:13.499Z,1.52
2023-04-28T16:07:41.235Z,1.30
2023-04-28T16:10:15.383Z,1.52
2023-04-28T16:12:43.172Z,1.70
2023-04-28T16:15:13.043Z,1.60
2023-04-28T16:17:41.733Z,1.52
2023-04-28T16:20:11.212Z,1.45
2023-04-28T16:22:41.181Z,1.40
2023-04-28T16:25:09.472Z,1.70
2023-04-28T16:27:38.614Z,1.80
2023-04-28T16:30:07.301Z,1.60
2023-04-28T16:32:40.544Z,1.65
2023-04-28T16:35:14.506Z,1.80
2023-04-28T16:37:43.213Z,1.60
2023-04-28T16:40:13.461Z,1.50
2023-04-28T16:42:41.975Z,1.48
2023-04-28T16:45:10.685Z,1.50
2023-04-28T16:47:42.132Z,1.27
2023-04-28T16:50:11.416Z,1.17
2023-04-28T16:52:39.092Z,0.93
2023-04-28T16:55:08.945Z,1.07
2023-04-28T16:57:36.478Z,1.07
2023-04-28T17:00:06.129Z,0.90
2023-04-28T17:02:34.556Z,0.97
2023-04-28T17:05:01.962Z,1.10
2023-04-28T17:07:29.209Z,1.13
2023-04-28T17:09:56.418Z,1.10
2023-04-28T17:12:23.572Z,17.90
2023-04-28T17:14:51.032Z,5.57
2023-04-28T17:17:18.130Z,12.57
2023-04-28T17:19:45.309Z,6.70
2023-04-28T17:22:12.537Z,6.87
2023-04-28T17:24:39.542Z,9.63
2023-04-28T17:27:06.520Z,2.40
2023-04-28T17:29:33.512Z,2.47
2023-04-28T17:32:00.464Z,2.80
2023-04-28T17:34:27.488Z,1.73
2023-04-28T17:36:54.529Z,2.63
2023-04-28T17:39:21.663Z,5.13
2023-04-28T17:41:48.631Z,1.53
2023-04-28T17:44:15.602Z,2.10
2023-04-28T17:46:42.759Z,1.80
2023-04-28T17:49:09.773Z,3.10
2023-04-28T17:51:38.004Z,1.87
2023-04-28T17:54:09.331Z,2.77
2023-04-28T17:56:39.571Z,7.47
2023-04-28T17:59:08.776Z,10.13
2023-04-28T18:01:36.058Z,5.53
2023-04-28T18:04:03.117Z,7.23
2023-04-28T18:06:30.267Z,6.70
2023-04-28T18:08:57.466Z,7.20
2023-04-28T18:11:24.563Z,5.83
2023-04-28T18:13:51.657Z,3.00
2023-04-28T18:16:18.801Z,7.93
2023-04-28T18:18:46.159Z,4.03
2023-04-28T18:21:13.375Z,2.53
2023-04-28T18:23:40.597Z,1.60
2023-04-28T18:26:07.709Z,1.70
2023-04-28T18:28:34.980Z,8.53
2023-04-28T18:31:05.513Z,4.17
2023-04-28T18:33:36.033Z,2.40
2023-04-28T18:36:07.264Z,2.90
2023-04-28T18:39:02.196Z,2.10
2023-04-28T18:41:33.780Z,4.20
2023-04-28T18:44:01.288Z,1.93
2023-04-28T18:46:29.445Z,2.40
2023-04-28T18:48:56.701Z,3.77
2023-04-28T18:51:23.814Z,1.70
2023-04-28T18:53:50.832Z,2.70
2023-04-28T18:56:18.062Z,1.98
2023-04-28T18:58:47.188Z,1.50
2023-04-28T19:01:18.909Z,1.80
2023-04-28T19:03:46.122Z,1.60
2023-04-28T19:06:14.493Z,2.20
2023-04-28T19:08:42.946Z,2.30
2023-04-28T19:11:10.221Z,3.37
2023-04-28T19:13:38.039Z,2.93
2023-04-28T19:16:05.833Z,4.90
2023-04-28T19:18:33.275Z,2.70
2023-04-28T19:21:04.487Z,3.10
2023-04-28T19:23:32.652Z,2.30
2023-04-28T19:26:00.402Z,2.27
2023-04-28T19:28:28.813Z,1.77
2023-04-28T19:30:59.346Z,1.67
2023-04-28T19:33:28.459Z,1.30
2023-04-28T19:35:55.762Z,1.20
2023-04-28T19:38:23.575Z,1.50
2023-04-28T19:40:51.023Z,1.70
2023-04-28T19:43:18.262Z,2.33
2023-04-28T19:45:46.622Z,1.60
2023-04-28T19:48:14.409Z,1.80
2023-04-28T19:50:41.913Z,1.20
2023-04-28T19:53:09.388Z,1.50
2023-04-28T19:55:36.902Z,1.40
2023-04-28T19:58:06.079Z,1.40
2023-04-28T20:00:33.098Z,1.33
2023-04-28T20:03:00.604Z,1.37
2023-04-28T20:05:28.791Z,1.60
2023-04-28T20:07:56.476Z,2.60
2023-04-28T20:10:24.115Z,1.97
2023-04-28T20:12:51.158Z,1.60
2023-04-28T20:15:18.511Z,1.50
2023-04-28T20:17:46.137Z,1.60
2023-04-28T20:20:13.531Z,1.50
2023-04-28T20:22:41.049Z,1.63
2023-04-28T20:25:10.672Z,1.73
2023-04-28T20:27:37.814Z,1.87
2023-04-28T20:30:06.421Z,2.50
2023-04-28T20:32:33.932Z,2.23
2023-04-28T20:35:02.780Z,2.27
2023-04-28T20:37:32.090Z,2.37
2023-04-28T20:39:59.160Z,2.60
2023-04-28T20:42:27.501Z,2.90
2023-04-28T20:44:54.450Z,2.37
2023-04-28T20:47:21.704Z,2.53
2023-04-28T20:49:48.906Z,2.97
2023-04-28T20:52:16.056Z,2.40
2023-04-28T20:54:43.742Z,3.67
2023-04-28T20:57:11.190Z,3.53
2023-04-28T20:59:38.159Z,3.53
2023-04-28T21:02:05.221Z,3.50
2023-04-28T21:04:32.841Z,3.37
2023-04-28T21:07:00.237Z,3.60
2023-04-28T21:09:27.263Z,4.07
2023-04-28T21:11:54.948Z,4.03
2023-04-28T21:14:22.144Z,4.23
2023-04-28T21:16:49.766Z,4.70
2023-04-28T21:19:17.402Z,4.50
2023-04-28T21:21:44.965Z,4.20
2023-04-28T21:24:12.566Z,4.73
2023-04-28T21:26:39.712Z,4.37
2023-04-28T21:29:08.940Z,4.27
2023-04-28T21:31:36.117Z,4.60
2023-04-28T21:34:03.228Z,4.73
2023-04-28T21:36:30.889Z,4.67
2023-04-28T21:38:58.156Z,4.67
2023-04-28T21:41:25.319Z,4.90
2023-04-28T21:43:52.795Z,5.03
2023-04-28T21:46:19.857Z,5.43
2023-04-28T21:48:47.063Z,5.40
2023-04-28T21:51:14.506Z,5.27
2023-04-28T21:53:41.488Z,5.43
2023-04-28T21:56:08.591Z,5.67
2023-04-28T21:58:35.846Z,5.43
2023-04-28T22:01:04.881Z,6.03
2023-04-28T22:03:35.233Z,6.50
2023-04-28T22:06:03.067Z,6.43
2023-04-28T22:08:31.500Z,6.03
2023-04-28T22:10:58.631Z,6.87
2023-04-28T22:13:25.564Z,6.50
2023-04-28T22:15:52.563Z,6.50
2023-04-28T22:18:20.230Z,6.57
2023-04-28T22:20:47.722Z,8.70
2023-04-28T22:23:14.720Z,10.37
2023-04-28T22:25:42.248Z,10.27
2023-04-28T22:28:09.426Z,9.77
2023-04-28T22:30:36.672Z,10.73
2023-04-28T22:33:03.927Z,10.93
2023-04-28T22:35:31.113Z,10.43
2023-04-28T22:37:58.081Z,11.90
2023-04-28T22:40:25.019Z,11.10
2023-04-28T22:42:52.113Z,11.13
2023-04-28T22:45:19.046Z,11.57
2023-04-28T22:47:46.057Z,11.47
2023-04-28T22:50:13.491Z,10.90
2023-04-28T22:52:40.521Z,11.70
2023-04-28T22:55:08.344Z,11.60
2023-04-28T22:57:36.345Z,11.90
2023-04-28T23:00:04.020Z,11.93
2023-04-28T23:02:31.876Z,13.10
2023-04-28T23:05:00.067Z,12.40
2023-04-28T23:07:27.193Z,13.07
2023-04-28T23:09:54.294Z,11.97
2023-04-28T23:12:21.769Z,13.47
2023-04-28T23:14:48.795Z,14.13
2023-04-28T23:17:16.245Z,14.57
2023-04-28T23:19:43.280Z,14.20
2023-04-28T23:22:10.347Z,15.17
2023-04-28T23:24:39.716Z,14.83
2023-04-28T23:27:06.741Z,15.50
2023-04-28T23:29:35.753Z,14.57
2023-04-28T23:32:04.120Z,15.27
2023-04-28T23:34:31.297Z,15.53
2023-04-28T23:36:58.481Z,15.30
2023-04-28T23:39:25.738Z,14.67
2023-04-28T23:41:52.853Z,15.00
2023-04-28T23:44:19.834Z,14.90
2023-04-28T23:46:46.921Z,14.73
2023-04-28T23:49:13.878Z,14.83
2023-04-28T23:51:40.932Z,14.10
2023-04-28T23:54:09.201Z,13.97
2023-04-28T23:56:36.333Z,13.63
2023-04-28T23:59:04.222Z,14.37
